sensor_id;sensor_type;location;lat;lon;timestamp;temperature;humidity
48212;DHT22;34000;48.772;9.162;2023-12-20T09:29:01;12.10;71.80
48212;DHT22;34000;48.772;9.162;2023-12-20T09:31:27;13.20;72.50
48212;DHT22;34000;48.772;9.162;2023-12-20T09:33:53;14.60;71.60
48212;DHT22;34000;48.772;9.162;2023-12-20T09:38:44;16.90;67.70
48212;DHT22;34000;48.772;9.162;2023-12-20T09:41:10;17.80;67.00
48212;DHT22;34000;48.772;9.162;2023-12-20T09:46:05;19.40;64.30
48212;DHT22;34000;48.772;9.162;2023-12-20T09:48:33;20.10;63.90
48212;DHT22;34000;48.772;9.162;2023-12-20T09:50:59;20.60;62.90
48212;DHT22;34000;48.772;9.162;2023-12-20T09:53:24;21.10;62.50
48212;DHT22;34000;48.772;9.162;2023-12-20T09:55:58;21.60;62.10
48212;DHT22;34000;48.772;9.162;2023-12-20T09:58:27;22.10;61.40
48212;DHT22;34000;48.772;9.162;2023-12-20T10:00:53;22.60;60.60
48212;DHT22;34000;48.772;9.162;2023-12-20T10:03:25;23.00;59.60
48212;DHT22;34000;48.772;9.162;2023-12-20T10:05:56;23.30;58.70
48212;DHT22;34000;48.772;9.162;2023-12-20T10:08:24;23.60;57.80
48212;DHT22;34000;48.772;9.162;2023-12-20T10:10:50;23.70;57.10
48212;DHT22;34000;48.772;9.162;2023-12-20T10:13:15;24.00;56.30
48212;DHT22;34000;48.772;9.162;2023-12-20T10:15:41;24.30;55.30
48212;DHT22;34000;48.772;9.162;2023-12-20T10:18:07;24.30;53.40
48212;DHT22;34000;48.772;9.162;2023-12-20T10:20:33;23.60;52.20
48212;DHT22;34000;48.772;9.162;2023-12-20T10:22:59;22.50;52.50
48212;DHT22;34000;48.772;9.162;2023-12-20T10:25:26;21.40;52.80
48212;DHT22;34000;48.772;9.162;2023-12-20T10:28:12;20.40;53.40
48212;DHT22;34000;48.772;9.162;2023-12-20T10:30:39;19.40;53.80
48212;DHT22;34000;48.772;9.162;2023-12-20T10:33:08;18.60;54.60
48212;DHT22;34000;48.772;9.162;2023-12-20T10:35:36;17.90;54.90
48212;DHT22;34000;48.772;9.162;2023-12-20T10:38:06;17.20;55.40
48212;DHT22;34000;48.772;9.162;2023-12-20T10:40:35;16.80;55.70
48212;DHT22;34000;48.772;9.162;2023-12-20T10:43:04;16.30;56.00
48212;DHT22;34000;48.772;9.162;2023-12-20T10:45:30;15.90;56.30
48212;DHT22;34000;48.772;9.162;2023-12-20T10:47:56;15.60;56.40
48212;DHT22;34000;48.772;9.162;2023-12-20T10:50:25;15.30;56.50
48212;DHT22;34000;48.772;9.162;2023-12-20T10:52:52;15.10;56.60
48212;DHT22;34000;48.772;9.162;2023-12-20T10:55:21;14.80;56.50
48212;DHT22;34000;48.772;9.162;2023-12-20T10:57:47;14.70;56.60
48212;DHT22;34000;48.772;9.162;2023-12-20T11:00:18;14.50;56.60
48212;DHT22;34000;48.772;9.162;2023-12-20T11:02:44;14.40;56.40
48212;DHT22;34000;48.772;9.162;2023-12-20T11:05:35;14.20;56.20
48212;DHT22;34000;48.772;9.162;2023-12-20T11:08:09;14.10;56.10
48212;DHT22;34000;48.772;9.162;2023-12-20T11:13:31;13.90;56.20
48212;DHT22;34000;48.772;9.162;2023-12-20T11:15:58;13.80;56.00
48212;DHT22;34000;48.772;9.162;2023-12-20T11:18:30;13.80;56.00
48212;DHT22;34000;48.772;9.162;2023-12-20T11:21:06;13.70;55.80
48212;DHT22;34000;48.772;9.162;2023-12-20T11:23:32;13.70;56.10
48212;DHT22;34000;48.772;9.162;2023-12-20T11:26:02;13.70;55.70
48212;DHT22;34000;48.772;9.162;2023-12-20T11:28:28;13.60;55.30
48212;DHT22;34000;48.772;9.162;2023-12-20T11:30:58;13.50;55.10
48212;DHT22;34000;48.772;9.162;2023-12-20T11:33:30;13.40;54.90
48212;DHT22;34000;48.772;9.162;2023-12-20T11:35:56;13.30;54.80
48212;DHT22;34000;48.772;9.162;2023-12-20T11:38:23;13.10;54.90
48212;DHT22;34000;48.772;9.162;2023-12-20T11:40:49;13.10;54.90
